AFR43MA LFKC-LFPO
Flight info
| Callsign | AFR43MA |
|---|---|
| Flight time | N/A |
| Altitude | 18000 |
| Route | MEGER Z911 OLETI M858 UNITA L50 NEDED/N0442F340 DCT TOP DCT AOSTA DCT ORSUD DCT MOLUS DCT UNKIR DCT DJL |
| Aircraft | A320/M-SDE3FGHIRWY/LB1 |
Departure
| Time | N/A |
|---|---|
| Airport | Calvi Sainte Catherine Airport (LFKC) |
Arrival
| Time | 2026-05-01 08:27 |
|---|---|
| Airport | Paris-Orly Airport (LFPO) |
| Time | Latitude | Longitude | Altitude | Speed | Heading |
|---|---|---|---|---|---|
| 2026-05-01 07:23 | 44.45382 | 8.42741 | 34344 ft | 428 kts | 322° |
| 2026-05-01 07:24 | 44.52186 | 8.34650 | 34352 ft | 427 kts | 322° |
| 2026-05-01 07:24 | 44.56718 | 8.29256 | 34337 ft | 428 kts | 322° |
| 2026-05-01 07:25 | 44.61294 | 8.23785 | 34337 ft | 429 kts | 322° |
| 2026-05-01 07:25 | 44.65072 | 8.19257 | 34339 ft | 430 kts | 322° |
| 2026-05-01 07:26 | 44.69618 | 8.13802 | 34340 ft | 430 kts | 322° |
| 2026-05-01 07:26 | 44.74160 | 8.08340 | 34337 ft | 430 kts | 322° |
| 2026-05-01 07:27 | 44.78723 | 8.02864 | 34340 ft | 431 kts | 322° |
| 2026-05-01 07:27 | 44.83286 | 7.97379 | 34325 ft | 432 kts | 322° |
| 2026-05-01 07:28 | 44.87858 | 7.91854 | 34331 ft | 434 kts | 321° |
| 2026-05-01 07:28 | 44.92573 | 7.86547 | 34337 ft | 432 kts | 331° |
| 2026-05-01 07:29 | 44.98034 | 7.82992 | 34338 ft | 430 kts | 340° |
| 2026-05-01 07:29 | 45.03583 | 7.79759 | 34343 ft | 431 kts | 339° |
| 2026-05-01 07:30 | 45.09163 | 7.76467 | 34349 ft | 432 kts | 339° |
| 2026-05-01 07:30 | 45.14715 | 7.73193 | 34365 ft | 433 kts | 339° |
| 2026-05-01 07:31 | 45.20287 | 7.69916 | 34353 ft | 434 kts | 339° |
| 2026-05-01 07:32 | 45.34302 | 7.61657 | 34379 ft | 438 kts | 339° |
| 2026-05-01 07:33 | 45.42779 | 7.56623 | 34368 ft | 439 kts | 339° |
| 2026-05-01 07:33 | 45.51244 | 7.51595 | 34357 ft | 439 kts | 339° |
| 2026-05-01 07:34 | 45.59742 | 7.46530 | 34346 ft | 440 kts | 339° |
| 2026-05-01 07:35 | 45.65388 | 7.43153 | 34338 ft | 439 kts | 339° |
| 2026-05-01 07:35 | 45.71022 | 7.39771 | 34375 ft | 439 kts | 339° |
| 2026-05-01 07:36 | 45.76657 | 7.36387 | 34381 ft | 439 kts | 339° |
| 2026-05-01 07:36 | 45.82015 | 7.32192 | 34370 ft | 442 kts | 326° |
| 2026-05-01 07:37 | 45.89544 | 7.24527 | 34352 ft | 443 kts | 326° |
| 2026-05-01 07:37 | 45.94570 | 7.19411 | 34338 ft | 443 kts | 327° |
| 2026-05-01 07:38 | 45.99590 | 7.14285 | 34318 ft | 443 kts | 326° |
| 2026-05-01 07:39 | 46.07165 | 7.06516 | 34293 ft | 445 kts | 326° |
| 2026-05-01 07:39 | 46.14736 | 6.98717 | 34293 ft | 447 kts | 326° |
| 2026-05-01 07:40 | 46.19793 | 6.93500 | 34306 ft | 446 kts | 326° |
| 2026-05-01 07:40 | 46.24843 | 6.88284 | 34305 ft | 446 kts | 326° |
| 2026-05-01 07:41 | 46.29884 | 6.83056 | 34299 ft | 446 kts | 326° |
| 2026-05-01 07:42 | 46.37448 | 6.75194 | 34280 ft | 447 kts | 326° |
| 2026-05-01 07:42 | 46.42473 | 6.69767 | 34287 ft | 449 kts | 319° |
| 2026-05-01 07:43 | 46.46431 | 6.62795 | 34297 ft | 451 kts | 301° |
| 2026-05-01 07:43 | 46.51121 | 6.50937 | 34301 ft | 452 kts | 300° |
| 2026-05-01 07:44 | 46.57372 | 6.35059 | 34284 ft | 454 kts | 300° |
| 2026-05-01 07:45 | 46.60507 | 6.27080 | 34274 ft | 455 kts | 300° |
| 2026-05-01 07:45 | 46.63642 | 6.19063 | 34278 ft | 456 kts | 300° |
| 2026-05-01 07:46 | 46.66773 | 6.11017 | 34267 ft | 457 kts | 300° |
| 2026-05-01 07:47 | 46.71489 | 5.98842 | 34256 ft | 459 kts | 299° |
| 2026-05-01 07:47 | 46.74620 | 5.90736 | 34258 ft | 460 kts | 299° |
| 2026-05-01 07:48 | 46.79323 | 5.78520 | 34264 ft | 460 kts | 299° |
| 2026-05-01 07:48 | 46.82964 | 5.70866 | 34269 ft | 460 kts | 314° |
| 2026-05-01 07:49 | 46.89965 | 5.61215 | 34252 ft | 462 kts | 317° |
| 2026-05-01 07:50 | 46.94654 | 5.54760 | 34255 ft | 463 kts | 317° |
| 2026-05-01 07:50 | 47.01693 | 5.45035 | 34263 ft | 464 kts | 317° |
| 2026-05-01 07:51 | 47.06426 | 5.38490 | 34266 ft | 464 kts | 317° |
| 2026-05-01 07:52 | 47.13472 | 5.28740 | 34261 ft | 465 kts | 316° |
| 2026-05-01 07:52 | 47.18172 | 5.22204 | 34256 ft | 466 kts | 316° |
| 2026-05-01 07:53 | 47.24433 | 5.13440 | 34248 ft | 467 kts | 316° |
| 2026-05-01 07:53 | 47.29125 | 5.06787 | 34237 ft | 470 kts | 315° |
| 2026-05-01 07:54 | 47.33667 | 4.99850 | 33606 ft | 471 kts | 313° |
| 2026-05-01 07:55 | 47.40461 | 4.89135 | 30926 ft | 481 kts | 313° |
| 2026-05-01 07:55 | 47.45034 | 4.82014 | 29608 ft | 473 kts | 314° |
| 2026-05-01 07:56 | 47.51785 | 4.71558 | 27689 ft | 460 kts | 314° |
| 2026-05-01 07:56 | 47.56161 | 4.64760 | 26499 ft | 452 kts | 314° |
| 2026-05-01 07:57 | 47.58313 | 4.61406 | 26052 ft | 445 kts | 314° |
| 2026-05-01 07:57 | 47.62472 | 4.54909 | 25505 ft | 425 kts | 313° |
| 2026-05-01 07:58 | 47.66501 | 4.48599 | 24955 ft | 419 kts | 313° |
| 2026-05-01 07:58 | 47.70482 | 4.42334 | 24410 ft | 415 kts | 313° |
| 2026-05-01 07:59 | 47.74432 | 4.36117 | 23870 ft | 412 kts | 313° |
| 2026-05-01 07:59 | 47.78352 | 4.29944 | 23302 ft | 409 kts | 313° |
| 2026-05-01 08:00 | 47.86083 | 4.17633 | 22241 ft | 402 kts | 308° |
| 2026-05-01 08:01 | 47.89457 | 4.06521 | 21461 ft | 392 kts | 279° |
| 2026-05-01 08:01 | 47.90027 | 4.02567 | 21212 ft | 391 kts | 279° |
| 2026-05-01 08:01 | 47.90600 | 3.98613 | 20956 ft | 389 kts | 280° |
| 2026-05-01 08:02 | 47.91743 | 3.90761 | 20447 ft | 386 kts | 279° |
| 2026-05-01 08:02 | 47.92309 | 3.86852 | 20193 ft | 385 kts | 279° |
| 2026-05-01 08:03 | 47.93428 | 3.79083 | 19691 ft | 382 kts | 279° |
| 2026-05-01 08:03 | 47.93981 | 3.75222 | 19441 ft | 380 kts | 279° |
| 2026-05-01 08:03 | 47.95078 | 3.67536 | 18947 ft | 377 kts | 279° |
| 2026-05-01 08:04 | 47.96273 | 3.59948 | 18438 ft | 375 kts | 288° |
| 2026-05-01 08:04 | 47.98931 | 3.53224 | 17590 ft | 379 kts | 312° |
| 2026-05-01 08:05 | 48.02604 | 3.47665 | 16767 ft | 372 kts | 314° |
| 2026-05-01 08:05 | 48.04409 | 3.44914 | 16355 ft | 369 kts | 314° |
| 2026-05-01 08:05 | 48.06196 | 3.42171 | 15936 ft | 367 kts | 314° |
| 2026-05-01 08:06 | 48.09661 | 3.36841 | 15148 ft | 363 kts | 314° |
| 2026-05-01 08:06 | 48.13176 | 3.31442 | 14373 ft | 358 kts | 314° |
| 2026-05-01 08:07 | 48.16627 | 3.26140 | 13639 ft | 351 kts | 314° |
| 2026-05-01 08:07 | 48.19955 | 3.21021 | 13353 ft | 331 kts | 314° |
| 2026-05-01 08:08 | 48.21544 | 3.18576 | 13131 ft | 324 kts | 314° |
| 2026-05-01 08:08 | 48.24664 | 3.13779 | 12501 ft | 318 kts | 314° |
| 2026-05-01 08:09 | 48.27728 | 3.09049 | 11865 ft | 314 kts | 314° |
| 2026-05-01 08:09 | 48.29245 | 3.06704 | 11545 ft | 311 kts | 314° |
| 2026-05-01 08:09 | 48.30755 | 3.04373 | 11263 ft | 320 kts | 314° |
| 2026-05-01 08:10 | 48.34216 | 2.99015 | 10828 ft | 372 kts | 313° |
| 2026-05-01 08:10 | 48.37679 | 2.93643 | 10540 ft | 343 kts | 313° |
| 2026-05-01 08:11 | 48.40875 | 2.88677 | 10293 ft | 319 kts | 313° |
| 2026-05-01 08:11 | 48.43849 | 2.84018 | 9941 ft | 300 kts | 309° |
| 2026-05-01 08:12 | 48.45602 | 2.78482 | 9206 ft | 293 kts | 278° |
| 2026-05-01 08:12 | 48.45760 | 2.75403 | 8823 ft | 290 kts | 270° |
| 2026-05-01 08:12 | 48.45928 | 2.69358 | 8075 ft | 286 kts | 271° |
| 2026-05-01 08:13 | 48.46012 | 2.66384 | 7912 ft | 282 kts | 271° |
| 2026-05-01 08:13 | 48.46099 | 2.63430 | 7759 ft | 282 kts | 271° |
| 2026-05-01 08:13 | 48.46364 | 2.57538 | 7507 ft | 282 kts | 272° |
| 2026-05-01 08:14 | 48.46521 | 2.54555 | 7365 ft | 283 kts | 272° |
| 2026-05-01 08:14 | 48.46676 | 2.51600 | 7233 ft | 282 kts | 272° |
| 2026-05-01 08:14 | 48.46823 | 2.48660 | 7101 ft | 282 kts | 272° |
| 2026-05-01 08:14 | 48.46970 | 2.45715 | 6968 ft | 281 kts | 272° |
| 2026-05-01 08:15 | 48.47116 | 2.42782 | 6837 ft | 281 kts | 272° |
| 2026-05-01 08:15 | 48.47399 | 2.36929 | 6570 ft | 280 kts | 272° |
| 2026-05-01 08:15 | 48.47537 | 2.33997 | 6439 ft | 279 kts | 272° |
| 2026-05-01 08:16 | 48.47670 | 2.31086 | 6315 ft | 278 kts | 272° |
| 2026-05-01 08:16 | 48.47803 | 2.28182 | 6194 ft | 278 kts | 272° |
| 2026-05-01 08:16 | 48.47937 | 2.25274 | 6073 ft | 277 kts | 272° |
| 2026-05-01 08:16 | 48.48070 | 2.22380 | 5946 ft | 276 kts | 272° |
| 2026-05-01 08:17 | 48.48200 | 2.19492 | 5835 ft | 276 kts | 272° |
| 2026-05-01 08:17 | 48.48332 | 2.16575 | 5718 ft | 276 kts | 272° |
| 2026-05-01 08:17 | 48.48462 | 2.13688 | 5624 ft | 275 kts | 271° |
| 2026-05-01 08:17 | 48.48589 | 2.10860 | 5524 ft | 274 kts | 272° |
| 2026-05-01 08:18 | 48.48719 | 2.07966 | 5428 ft | 273 kts | 271° |
| 2026-05-01 08:18 | 48.48974 | 2.02275 | 5096 ft | 270 kts | 271° |
| 2026-05-01 08:19 | 48.49224 | 1.96927 | 4972 ft | 242 kts | 276° |
| 2026-05-01 08:19 | 48.49786 | 1.94574 | 4826 ft | 238 kts | 301° |
| 2026-05-01 08:19 | 48.50928 | 1.92850 | 4760 ft | 230 kts | 327° |
| 2026-05-01 08:19 | 48.52388 | 1.92030 | 4709 ft | 221 kts | 352° |
| 2026-05-01 08:20 | 48.53896 | 1.92162 | 4654 ft | 217 kts | 17° |
| 2026-05-01 08:20 | 48.55234 | 1.93165 | 4612 ft | 215 kts | 39° |
| 2026-05-01 08:20 | 48.56426 | 1.94520 | 4573 ft | 215 kts | 39° |
| 2026-05-01 08:20 | 48.57627 | 1.95868 | 4520 ft | 214 kts | 38° |
| 2026-05-01 08:21 | 48.58817 | 1.97200 | 4493 ft | 208 kts | 38° |
| 2026-05-01 08:21 | 48.59576 | 1.98074 | 4467 ft | 198 kts | 43° |
| 2026-05-01 08:21 | 48.60429 | 1.99576 | 4408 ft | 181 kts | 59° |
| 2026-05-01 08:21 | 48.61068 | 2.01141 | 4350 ft | 169 kts | 63° |
| 2026-05-01 08:22 | 48.61619 | 2.02617 | 4341 ft | 157 kts | 64° |
| 2026-05-01 08:22 | 48.62141 | 2.04055 | 4285 ft | 156 kts | 65° |
| 2026-05-01 08:22 | 48.62657 | 2.05487 | 4140 ft | 155 kts | 65° |
| 2026-05-01 08:22 | 48.63171 | 2.06920 | 3954 ft | 155 kts | 65° |
| 2026-05-01 08:23 | 48.63683 | 2.08349 | 3765 ft | 154 kts | 65° |
| 2026-05-01 08:23 | 48.64192 | 2.09772 | 3568 ft | 154 kts | 65° |
| 2026-05-01 08:23 | 48.64701 | 2.11195 | 3376 ft | 154 kts | 65° |
| 2026-05-01 08:23 | 48.65210 | 2.12620 | 3164 ft | 154 kts | 65° |
| 2026-05-01 08:24 | 48.65721 | 2.14051 | 2949 ft | 154 kts | 64° |
| 2026-05-01 08:24 | 48.66230 | 2.15479 | 2751 ft | 155 kts | 63° |
| 2026-05-01 08:24 | 48.66743 | 2.16915 | 2539 ft | 155 kts | 64° |
| 2026-05-01 08:24 | 48.67259 | 2.18363 | 2333 ft | 153 kts | 63° |
| 2026-05-01 08:25 | 48.67766 | 2.19786 | 2130 ft | 154 kts | 63° |
| 2026-05-01 08:25 | 48.68272 | 2.21209 | 1904 ft | 153 kts | 62° |
| 2026-05-01 08:25 | 48.68773 | 2.22614 | 1710 ft | 151 kts | 63° |
| 2026-05-01 08:25 | 48.69268 | 2.24006 | 1508 ft | 150 kts | 63° |
| 2026-05-01 08:26 | 48.69761 | 2.25392 | 1300 ft | 147 kts | 64° |
| 2026-05-01 08:26 | 48.70250 | 2.26770 | 1105 ft | 146 kts | 63° |
| 2026-05-01 08:26 | 48.70728 | 2.28116 | 916 ft | 144 kts | 64° |
| 2026-05-01 08:26 | 48.71198 | 2.29439 | 723 ft | 142 kts | 64° |
| 2026-05-01 08:27 | 48.71662 | 2.30747 | 536 ft | 140 kts | 63° |
| 2026-05-01 08:27 | 48.72121 | 2.32043 | 360 ft | 139 kts | 62° |
| 2026-05-01 08:27 | 48.72542 | 2.33237 | 298 ft | 99 kts | 62° |
| 2026-05-01 08:27 | 48.72731 | 2.33765 | 301 ft | 26 kts | 61° |
| 2026-05-01 08:28 | 48.72773 | 2.34032 | 297 ft | 27 kts | 84° |
| 2026-05-01 08:28 | 48.72796 | 2.34317 | 294 ft | 28 kts | 80° |
| 2026-05-01 08:28 | 48.72825 | 2.34596 | 294 ft | 25 kts | 82° |
| 2026-05-01 08:28 | 48.72847 | 2.34847 | 296 ft | 22 kts | 82° |
| 2026-05-01 08:29 | 48.72869 | 2.35082 | 294 ft | 22 kts | 83° |
| 2026-05-01 08:29 | 48.72823 | 2.35178 | 296 ft | 11 kts | 140° |
| 2026-05-01 08:29 | 48.72759 | 2.35235 | 297 ft | 11 kts | 169° |
| 2026-05-01 08:29 | 48.72686 | 2.35254 | 295 ft | 12 kts | 172° |
| 2026-05-01 08:30 | 48.72608 | 2.35273 | 294 ft | 13 kts | 169° |
| 2026-05-01 08:30 | 48.72508 | 2.35300 | 294 ft | 16 kts | 169° |
| 2026-05-01 08:30 | 48.72422 | 2.35402 | 298 ft | 17 kts | 111° |
| 2026-05-01 08:30 | 48.72444 | 2.35584 | 297 ft | 19 kts | 76° |
| 2026-05-01 08:31 | 48.72479 | 2.35783 | 294 ft | 20 kts | 84° |
| 2026-05-01 08:31 | 48.72471 | 2.35959 | 297 ft | 9 kts | 98° |
| 2026-05-01 08:31 | 48.72498 | 2.36004 | 295 ft | 5 kts | 358° |
| 2026-05-01 08:31 | 48.72531 | 2.36019 | 294 ft | 6 kts | 19° |
| 2026-05-01 08:32 | 48.72573 | 2.36043 | 294 ft | 6 kts | 23° |
| 2026-05-01 08:32 | 48.72582 | 2.36049 | 298 ft | 0 kts | 22° |